createdAt,value
2023-04-18T00:01:16.839Z,20.80
2023-04-18T00:03:45.714Z,24.15
2023-04-18T00:06:13.688Z,21.15
2023-04-18T00:08:41.158Z,21.95
2023-04-18T00:11:08.546Z,17.63
2023-04-18T00:13:38.362Z,20.42
2023-04-18T00:16:05.998Z,17.50
2023-04-18T00:18:33.279Z,19.42
2023-04-18T00:21:00.612Z,16.55
2023-04-18T00:23:28.284Z,21.80
2023-04-18T00:25:55.593Z,19.42
2023-04-18T00:28:22.956Z,20.58
2023-04-18T00:30:51.684Z,24.88
2023-04-18T00:33:19.139Z,21.75
2023-04-18T00:35:46.488Z,16.92
2023-04-18T00:38:13.774Z,19.40
2023-04-18T00:40:41.159Z,18.33
2023-04-18T00:43:08.589Z,17.00
2023-04-18T00:45:36.906Z,19.58
2023-04-18T00:48:05.733Z,14.20
2023-04-18T00:50:33.120Z,19.77
2023-04-18T00:53:00.409Z,16.95
2023-04-18T00:55:27.751Z,20.85
2023-04-18T00:57:55.583Z,21.67
2023-04-18T01:00:22.889Z,19.88
2023-04-18T01:02:53.044Z,24.10
2023-04-18T01:05:22.319Z,24.58
2023-04-18T01:07:50.005Z,20.70
2023-04-18T01:10:17.345Z,19.38
2023-04-18T01:12:44.636Z,20.25
2023-04-18T01:15:12.520Z,19.42
2023-04-18T01:17:39.951Z,19.27
2023-04-18T01:20:08.224Z,22.00
2023-04-18T01:22:36.950Z,21.00
2023-04-18T01:25:09.153Z,20.17
2023-04-18T01:27:36.469Z,19.17
2023-04-18T01:30:04.140Z,22.40
2023-04-18T01:32:31.554Z,20.42
2023-04-18T01:34:58.876Z,18.55
2023-04-18T01:37:28.337Z,24.67
2023-04-18T01:39:55.709Z,29.30
2023-04-18T01:42:24.352Z,19.73
2023-04-18T01:44:51.671Z,20.90
2023-04-18T01:47:19.005Z,19.40
2023-04-18T01:49:48.233Z,21.65
2023-04-18T01:52:15.987Z,19.05
2023-04-18T01:54:43.389Z,20.83
2023-04-18T01:57:10.718Z,20.67
2023-04-18T01:59:39.421Z,20.27
2023-04-18T02:02:06.877Z,20.15
2023-04-18T02:04:34.236Z,22.63
2023-04-18T02:07:01.535Z,21.92
2023-04-18T02:09:28.849Z,21.75
2023-04-18T02:11:59.214Z,23.75
2023-04-18T02:14:27.547Z,22.23
2023-04-18T02:16:56.299Z,21.50
2023-04-18T02:19:24.199Z,22.50
2023-04-18T02:21:51.558Z,19.67
2023-04-18T02:24:18.998Z,21.10
2023-04-18T02:26:46.507Z,21.45
2023-04-18T02:29:13.818Z,22.63
2023-04-18T02:31:41.795Z,18.83
2023-04-18T02:34:10.719Z,21.17
2023-04-18T02:36:38.180Z,26.08
2023-04-18T02:39:05.536Z,21.25
2023-04-18T02:41:34.608Z,23.33
2023-04-18T02:44:01.923Z,19.63
2023-04-18T02:46:29.288Z,21.35
2023-04-18T02:48:56.685Z,22.55
2023-04-18T02:51:26.292Z,20.80
2023-04-18T02:53:55.060Z,22.13
2023-04-18T02:56:22.694Z,20.33
2023-04-18T02:58:50.053Z,18.33
2023-04-18T03:01:18.391Z,23.40
2023-04-18T03:03:45.731Z,21.20
2023-04-18T03:06:13.128Z,23.92
2023-04-18T03:08:41.991Z,20.55
2023-04-18T03:11:09.314Z,24.40
2023-04-18T03:13:36.641Z,22.55
2023-04-18T03:16:04.133Z,21.00
2023-04-18T03:18:31.462Z,25.15
2023-04-18T03:20:58.748Z,26.88
2023-04-18T03:23:26.065Z,22.05
2023-04-18T03:25:54.681Z,26.23
2023-04-18T03:28:21.972Z,24.10
2023-04-18T03:30:50.477Z,27.02
2023-04-18T03:33:18.014Z,24.80
2023-04-18T03:35:45.316Z,22.65
2023-04-18T03:38:12.627Z,28.10
2023-04-18T03:40:39.924Z,24.67
2023-04-18T03:43:08.554Z,25.13
2023-04-18T03:45:35.950Z,25.17
2023-04-18T03:48:03.521Z,31.85
2023-04-18T03:50:30.886Z,28.90
2023-04-18T03:52:58.207Z,24.05
2023-04-18T03:55:26.115Z,26.27
2023-04-18T03:57:53.455Z,25.75
2023-04-18T04:00:22.105Z,27.08
2023-04-18T04:02:49.440Z,26.90
2023-04-18T04:05:16.932Z,29.23
2023-04-18T04:07:44.468Z,26.67
2023-04-18T04:10:11.986Z,27.80
2023-04-18T04:12:39.330Z,25.63
2023-04-18T04:15:07.217Z,31.50
2023-04-18T04:17:35.878Z,28.17
2023-04-18T04:20:03.243Z,32.85
2023-04-18T04:22:31.039Z,29.30
2023-04-18T04:24:58.511Z,29.10
2023-04-18T04:27:26.796Z,30.98
2023-04-18T04:29:54.257Z,33.55
2023-04-18T04:32:21.627Z,25.83
2023-04-18T04:34:50.449Z,27.98
2023-04-18T04:37:18.549Z,26.98
2023-04-18T04:39:46.017Z,24.83
2023-04-18T04:42:13.527Z,32.25
2023-04-18T04:44:41.406Z,29.63
2023-04-18T04:47:08.822Z,27.63
2023-04-18T04:49:36.122Z,27.20
2023-04-18T04:52:04.830Z,30.40
2023-04-18T04:54:32.119Z,31.63
2023-04-18T04:56:59.447Z,33.97
2023-04-18T04:59:26.726Z,33.60
2023-04-18T05:01:54.212Z,32.75
2023-04-18T05:04:21.588Z,30.73
2023-04-18T05:06:49.067Z,31.73
2023-04-18T05:09:17.701Z,31.40
2023-04-18T05:11:45.052Z,28.83
2023-04-18T05:14:13.022Z,32.17
2023-04-18T05:16:40.760Z,28.80
2023-04-18T05:19:08.122Z,28.67
2023-04-18T05:21:35.508Z,28.05
2023-04-18T05:24:02.821Z,31.20
2023-04-18T05:26:31.449Z,31.73
2023-04-18T05:28:58.787Z,28.17
2023-04-18T05:31:26.707Z,25.83
2023-04-18T05:33:54.047Z,27.83
2023-04-18T05:36:21.507Z,31.60
2023-04-18T05:38:48.835Z,33.50
2023-04-18T05:41:16.192Z,29.35
2023-04-18T05:43:51.115Z,26.38
2023-04-18T05:46:29.484Z,28.05
2023-04-18T05:48:56.817Z,25.05
2023-04-18T05:51:24.098Z,26.33
2023-04-18T05:53:51.385Z,24.58
2023-04-18T05:56:18.684Z,25.50
2023-04-18T05:58:47.708Z,21.13
2023-04-18T06:01:15.295Z,22.95
2023-04-18T06:03:42.851Z,20.73
2023-04-18T06:06:10.691Z,20.83
2023-04-18T06:08:38.927Z,23.42
2023-04-18T06:11:06.401Z,23.92
2023-04-18T06:13:33.764Z,21.42
2023-04-18T06:16:02.484Z,21.08
2023-04-18T06:18:29.809Z,20.65
2023-04-18T06:20:57.158Z,20.02
2023-04-18T06:23:24.555Z,18.85
2023-04-18T06:25:51.855Z,22.55
2023-04-18T06:28:19.150Z,20.38
2023-04-18T06:30:46.436Z,19.15
2023-04-18T06:33:15.332Z,20.73
2023-04-18T06:35:42.932Z,19.25
2023-04-18T06:38:11.491Z,18.38
2023-04-18T06:40:38.836Z,23.30
2023-04-18T06:43:06.112Z,18.30
2023-04-18T06:45:33.531Z,19.65
2023-04-18T06:48:03.375Z,17.08
2023-04-18T06:50:32.237Z,18.38
2023-04-18T06:52:59.538Z,20.00
2023-04-18T06:55:26.819Z,18.02
2023-04-18T06:57:54.151Z,17.80
2023-04-18T07:00:21.699Z,17.40
2023-04-18T07:02:49.463Z,19.42
2023-04-18T07:05:16.948Z,16.63
2023-04-18T07:07:45.640Z,17.85
2023-04-18T07:10:13.380Z,17.13
2023-04-18T07:12:40.755Z,16.55
2023-04-18T07:15:08.654Z,18.30
2023-04-18T07:17:35.973Z,17.00
2023-04-18T07:20:03.343Z,14.15
2023-04-18T07:22:30.938Z,15.52
2023-04-18T07:24:59.560Z,13.23
2023-04-18T07:27:26.891Z,12.82
2023-04-18T07:29:54.150Z,12.63
2023-04-18T07:32:21.489Z,13.43
2023-04-18T07:34:48.979Z,12.10
2023-04-18T07:37:17.425Z,15.18
2023-04-18T07:39:45.082Z,12.90
2023-04-18T07:42:13.838Z,12.52
2023-04-18T07:44:41.224Z,11.98
2023-04-18T07:47:10.819Z,12.40
2023-04-18T07:49:38.352Z,13.85
2023-04-18T07:52:05.796Z,9.18
2023-04-18T07:54:33.104Z,11.18
2023-04-18T07:57:00.745Z,9.60
2023-04-18T07:59:29.772Z,9.88
2023-04-18T08:01:57.080Z,13.88
2023-04-18T08:04:26.888Z,9.18
2023-04-18T08:06:59.096Z,9.95
2023-04-18T08:09:26.428Z,9.50
2023-04-18T08:11:55.111Z,8.65
2023-04-18T08:14:22.450Z,8.68
2023-04-18T08:16:51.098Z,8.52
2023-04-18T08:19:18.420Z,10.75
2023-04-18T08:21:45.698Z,9.68
2023-04-18T08:24:12.989Z,9.65
2023-04-18T08:26:40.261Z,10.02
2023-04-18T08:29:07.926Z,8.05
2023-04-18T08:31:35.254Z,10.75
2023-04-18T08:34:05.105Z,8.90
2023-04-18T08:36:32.584Z,9.38
2023-04-18T08:38:59.870Z,9.27
2023-04-18T08:41:27.468Z,9.40
2023-04-18T08:43:56.990Z,9.15
2023-04-18T08:46:24.577Z,9.05
2023-04-18T08:48:52.515Z,9.68
2023-04-18T08:51:21.441Z,11.05
2023-04-18T08:53:48.875Z,11.45
2023-04-18T08:56:16.227Z,9.60
2023-04-18T08:58:45.000Z,11.50
2023-04-18T09:01:13.376Z,12.55
2023-04-18T09:03:41.233Z,10.40
2023-04-18T09:06:13.552Z,10.32
2023-04-18T09:08:43.405Z,12.05
2023-04-18T09:11:24.206Z,9.75
2023-04-18T09:13:51.763Z,11.68
2023-04-18T09:16:20.611Z,10.82
2023-04-18T09:19:04.709Z,14.23
2023-04-18T09:21:35.921Z,9.90
2023-04-18T09:24:17.370Z,9.38
2023-04-18T09:26:44.709Z,12.40
2023-04-18T09:29:12.357Z,10.40
2023-04-18T09:31:53.077Z,10.48
2023-04-18T09:34:24.697Z,10.27
2023-04-18T09:37:06.415Z,10.43
2023-04-18T09:39:35.276Z,10.60
2023-04-18T09:42:02.722Z,9.40
2023-04-18T09:44:30.179Z,12.05
2023-04-18T09:46:57.485Z,9.55
2023-04-18T09:49:25.468Z,8.82
2023-04-18T09:51:54.348Z,10.45
2023-04-18T09:54:23.413Z,9.80
2023-04-18T09:56:54.117Z,8.93
2023-04-18T09:59:28.149Z,9.50
2023-04-18T10:01:56.420Z,8.65
2023-04-18T10:04:24.139Z,10.77
2023-04-18T10:06:51.489Z,7.70
2023-04-18T10:09:19.008Z,10.50
2023-04-18T10:11:46.409Z,10.35
2023-04-18T10:14:16.671Z,8.20
2023-04-18T10:16:45.289Z,11.07
2023-04-18T10:19:22.807Z,10.82
2023-04-18T10:21:53.627Z,10.10
2023-04-18T10:24:39.394Z,8.75
2023-04-18T10:27:06.712Z,7.65
2023-04-18T10:29:48.922Z,8.88
2023-04-18T10:32:16.533Z,7.43
2023-04-18T10:34:43.857Z,7.03
2023-04-18T10:37:12.738Z,9.20
2023-04-18T10:39:50.597Z,7.35
2023-04-18T10:42:18.059Z,7.35
2023-04-18T10:45:05.617Z,7.95
2023-04-18T10:47:34.388Z,7.88
2023-04-18T10:50:06.232Z,8.00
2023-04-18T10:52:34.092Z,8.50
2023-04-18T10:55:09.747Z,8.80
2023-04-18T10:57:43.689Z,6.45
2023-04-18T11:00:12.514Z,7.80
2023-04-18T11:02:41.468Z,8.77
2023-04-18T11:05:09.505Z,7.15
2023-04-18T11:07:37.278Z,8.85
2023-04-18T11:10:04.954Z,7.47
2023-04-18T11:12:33.258Z,8.40
2023-04-18T11:15:02.983Z,7.93
2023-04-18T11:17:32.717Z,7.22
2023-04-18T11:20:01.968Z,8.25
2023-04-18T11:22:31.001Z,6.78
2023-04-18T11:24:58.827Z,9.20
2023-04-18T11:27:26.684Z,8.90
2023-04-18T11:29:54.891Z,7.05
2023-04-18T11:32:23.621Z,8.52
2023-04-18T11:34:54.803Z,9.95
2023-04-18T11:37:23.532Z,8.05
2023-04-18T11:39:52.962Z,9.07
2023-04-18T11:42:20.280Z,8.05
2023-04-18T11:44:49.068Z,9.55
2023-04-18T11:47:23.219Z,9.65
2023-04-18T11:49:57.176Z,11.05
2023-04-18T11:52:26.797Z,9.40
2023-04-18T11:54:54.050Z,9.98
2023-04-18T11:57:22.672Z,10.88
2023-04-18T11:59:51.133Z,8.57
2023-04-18T12:02:18.575Z,9.63
2023-04-18T12:04:53.024Z,10.40
2023-04-18T12:09:52.910Z,11.70
2023-04-18T12:12:20.234Z,10.98
2023-04-18T12:14:47.576Z,7.13
2023-04-18T12:17:14.984Z,7.40
2023-04-18T12:19:45.979Z,7.22
2023-04-18T12:22:16.617Z,8.73
2023-04-18T12:24:43.970Z,7.85
2023-04-18T12:27:12.981Z,8.40
2023-04-18T12:29:40.635Z,8.45
2023-04-18T12:32:07.912Z,7.80
2023-04-18T12:34:35.224Z,12.48
2023-04-18T12:37:03.740Z,9.13
2023-04-18T12:39:31.023Z,8.70
2023-04-18T12:41:58.435Z,9.13
2023-04-18T12:44:27.064Z,8.13
2023-04-18T12:46:54.408Z,9.38
2023-04-18T12:49:21.719Z,9.02
2023-04-18T12:51:49.019Z,9.02
2023-04-18T12:54:16.461Z,7.30
2023-04-18T12:56:45.883Z,13.43
2023-04-18T12:59:13.535Z,11.88
2023-04-18T13:01:42.364Z,11.40
2023-04-18T13:04:12.825Z,9.68
2023-04-18T13:06:40.453Z,7.63
2023-04-18T13:09:09.009Z,6.80
2023-04-18T13:11:36.297Z,7.30
2023-04-18T13:14:03.695Z,6.82
2023-04-18T13:16:31.080Z,8.25
2023-04-18T13:18:59.840Z,7.43
2023-04-18T13:21:27.411Z,7.43
2023-04-18T13:23:54.709Z,6.20
2023-04-18T13:26:21.949Z,6.97
2023-04-18T13:28:50.035Z,7.05
2023-04-18T13:31:17.339Z,6.65
2023-04-18T13:33:44.600Z,6.50
2023-04-18T13:36:13.217Z,8.35
2023-04-18T13:38:41.003Z,6.43
2023-04-18T13:41:12.771Z,8.32
2023-04-18T13:43:40.918Z,7.35
2023-04-18T13:46:08.231Z,7.65
2023-04-18T13:48:35.566Z,8.00
2023-04-18T13:51:03.177Z,7.50
2023-04-18T13:53:31.812Z,8.38
2023-04-18T13:56:01.035Z,8.63
2023-04-18T13:58:28.407Z,6.57
2023-04-18T14:00:55.972Z,8.50
2023-04-18T14:03:23.290Z,7.05
2023-04-18T14:05:50.829Z,7.15
2023-04-18T14:08:18.260Z,10.32
2023-04-18T14:10:46.870Z,13.82
2023-04-18T14:13:14.172Z,13.23
2023-04-18T14:15:41.527Z,12.77
2023-04-18T14:18:08.988Z,11.70
2023-04-18T14:20:37.046Z,13.43
2023-04-18T14:23:04.349Z,13.75
2023-04-18T14:25:31.790Z,15.18
2023-04-18T14:28:07.790Z,12.80
2023-04-18T14:30:35.116Z,14.48
2023-04-18T14:33:02.554Z,12.25
2023-04-18T14:35:29.980Z,14.50
2023-04-18T14:37:57.264Z,12.52
2023-04-18T14:40:24.949Z,13.32
2023-04-18T14:42:52.257Z,13.50
2023-04-18T14:45:20.965Z,10.05
2023-04-18T14:47:48.326Z,9.65
2023-04-18T14:50:16.201Z,10.48
2023-04-18T14:52:43.598Z,8.40
2023-04-18T14:55:11.128Z,8.38
2023-04-18T14:57:39.080Z,10.45
2023-04-18T15:00:09.746Z,8.90
2023-04-18T15:02:38.574Z,11.23
2023-04-18T15:05:07.308Z,8.00
2023-04-18T15:07:36.749Z,7.75
2023-04-18T15:10:04.526Z,8.35
2023-04-18T15:12:31.945Z,8.38
2023-04-18T15:15:00.053Z,9.63
2023-04-18T15:17:27.559Z,10.25
2023-04-18T15:19:56.258Z,8.50
2023-04-18T15:22:23.603Z,9.13
2023-04-18T15:24:51.189Z,8.80
2023-04-18T15:27:18.490Z,8.93
2023-04-18T15:29:46.844Z,9.10
2023-04-18T15:32:14.442Z,9.35
2023-04-18T15:34:41.925Z,7.65
2023-04-18T15:37:10.575Z,10.02
2023-04-18T15:39:38.700Z,8.75
2023-04-18T15:42:06.839Z,7.88
2023-04-18T15:44:34.127Z,9.10
2023-04-18T15:47:01.807Z,8.45
2023-04-18T15:49:29.253Z,8.25
2023-04-18T15:51:56.742Z,9.82
2023-04-18T15:54:25.455Z,8.40
2023-04-18T15:56:52.730Z,8.10
2023-04-18T15:59:20.343Z,8.32
2023-04-18T16:01:54.987Z,8.18
2023-04-18T16:04:23.663Z,8.93
2023-04-18T16:06:50.975Z,9.15
2023-04-18T16:09:18.465Z,10.07
2023-04-18T16:11:47.144Z,9.55
2023-04-18T16:14:14.710Z,9.63
2023-04-18T16:16:42.387Z,10.10
2023-04-18T16:19:09.702Z,8.15
2023-04-18T16:21:37.034Z,7.97
2023-04-18T16:24:04.372Z,8.30
2023-04-18T16:26:31.689Z,8.18
2023-04-18T16:29:00.524Z,10.50
2023-04-18T16:31:27.945Z,8.55
2023-04-18T16:33:55.956Z,7.78
2023-04-18T16:36:23.352Z,9.50
2023-04-18T16:38:51.085Z,7.88
2023-04-18T16:41:18.386Z,9.27
2023-04-18T16:43:45.735Z,9.23
2023-04-18T16:46:14.638Z,7.78
2023-04-18T16:48:41.935Z,9.93
2023-04-18T16:51:09.273Z,10.05
2023-04-18T16:53:36.774Z,8.05
2023-04-18T16:56:04.203Z,7.97
2023-04-18T16:58:31.500Z,8.85
2023-04-18T17:00:58.846Z,8.05
2023-04-18T17:03:27.613Z,7.93
2023-04-18T17:05:55.631Z,8.63
2023-04-18T17:08:24.004Z,8.20
2023-04-18T17:10:52.170Z,7.90
2023-04-18T17:13:19.519Z,7.82
2023-04-18T17:15:46.949Z,7.20
2023-04-18T17:18:14.317Z,7.43
2023-04-18T17:20:42.952Z,7.15
2023-04-18T17:23:10.257Z,7.55
2023-04-18T17:25:37.641Z,8.75
2023-04-18T17:28:05.126Z,7.72
2023-04-18T17:30:32.435Z,8.13
2023-04-18T17:32:59.766Z,7.07
2023-04-18T17:35:27.160Z,8.48
2023-04-18T17:37:55.842Z,6.95
2023-04-18T17:40:23.226Z,8.10
2023-04-18T17:42:50.541Z,6.65
2023-04-18T17:45:20.270Z,7.82
2023-04-18T17:47:49.368Z,7.32
2023-04-18T17:50:16.684Z,7.82
2023-04-18T17:52:45.055Z,9.52
2023-04-18T17:55:13.778Z,7.30
2023-04-18T17:57:41.476Z,12.25
2023-04-18T18:00:11.618Z,7.63
2023-04-18T18:02:40.268Z,8.73
2023-04-18T18:05:08.818Z,9.60
2023-04-18T18:07:38.145Z,9.40
2023-04-18T18:10:06.449Z,8.18
2023-04-18T18:12:36.056Z,7.68
2023-04-18T18:15:03.383Z,9.15
2023-04-18T18:17:30.810Z,9.93
2023-04-18T18:19:58.201Z,8.20
2023-04-18T18:22:26.060Z,9.82
2023-04-18T18:24:53.471Z,10.07
2023-04-18T18:27:20.896Z,8.02
2023-04-18T18:29:50.264Z,10.38
2023-04-18T18:32:17.823Z,10.40
2023-04-18T18:34:45.540Z,9.07
2023-04-18T18:37:12.853Z,7.82
2023-04-18T18:39:40.344Z,7.95
2023-04-18T18:42:07.673Z,7.70
2023-04-18T18:44:35.002Z,10.70
2023-04-18T18:47:03.767Z,9.95
2023-04-18T18:49:31.081Z,10.90
2023-04-18T18:51:58.434Z,7.85
2023-04-18T18:54:25.825Z,8.43
2023-04-18T18:56:53.113Z,9.45
2023-04-18T18:59:20.418Z,9.07
2023-04-18T19:01:47.753Z,10.85
2023-04-18T19:04:16.810Z,8.68
2023-04-18T19:06:44.322Z,8.13
2023-04-18T19:09:11.843Z,8.43
2023-04-18T19:11:39.177Z,9.02
2023-04-18T19:14:06.510Z,9.13
2023-04-18T19:16:35.870Z,10.52
2023-04-18T19:19:03.281Z,10.07
2023-04-18T19:21:32.215Z,9.07
2023-04-18T19:23:59.496Z,9.27
2023-04-18T19:26:26.809Z,8.77
2023-04-18T19:28:54.415Z,9.70
2023-04-18T19:31:21.713Z,9.52
2023-04-18T19:33:51.898Z,14.07
2023-04-18T19:36:19.223Z,11.75
2023-04-18T19:38:47.858Z,10.60
2023-04-18T19:41:15.163Z,10.98
2023-04-18T19:43:42.473Z,16.00
2023-04-18T19:46:09.808Z,11.40
2023-04-18T19:48:37.372Z,11.10
2023-04-18T19:51:04.866Z,9.50
2023-04-18T19:53:32.189Z,9.48
2023-04-18T19:56:00.820Z,9.48
2023-04-18T19:58:34.421Z,10.02
2023-04-18T20:01:01.884Z,10.38
2023-04-18T20:03:29.484Z,9.52
2023-04-18T20:05:56.905Z,10.05
2023-04-18T20:08:24.250Z,10.35
2023-04-18T20:10:51.543Z,10.27
2023-04-18T20:13:20.236Z,11.93
2023-04-18T20:15:47.546Z,11.60
2023-04-18T20:18:14.868Z,9.05
2023-04-18T20:20:42.232Z,9.15
2023-04-18T20:23:09.551Z,10.57
2023-04-18T20:25:36.837Z,7.40
2023-04-18T20:28:04.453Z,8.45
2023-04-18T20:30:34.658Z,8.48
2023-04-18T20:33:02.040Z,7.25
2023-04-18T20:35:29.685Z,7.38
2023-04-18T20:37:57.685Z,7.28
2023-04-18T20:40:25.501Z,9.65
2023-04-18T20:42:55.188Z,7.63
2023-04-18T20:45:23.923Z,7.00
2023-04-18T20:47:52.641Z,7.65
2023-04-18T20:50:20.445Z,7.60
2023-04-18T20:52:47.848Z,8.52
2023-04-18T20:55:16.671Z,7.50
2023-04-18T20:57:44.025Z,8.55
2023-04-18T21:00:14.307Z,9.43
2023-04-18T21:02:41.742Z,10.80
2023-04-18T21:05:10.693Z,10.88
2023-04-18T21:07:38.074Z,12.13
2023-04-18T21:10:05.703Z,11.07
2023-04-18T21:12:33.108Z,13.18
2023-04-18T21:15:00.408Z,11.23
2023-04-18T21:17:27.718Z,13.50
2023-04-18T21:19:56.182Z,12.73
2023-04-18T21:22:24.807Z,19.02
2023-04-18T21:24:52.102Z,17.88
2023-04-18T21:27:19.407Z,15.82
2023-04-18T21:29:46.765Z,14.48
2023-04-18T21:32:14.057Z,12.02
2023-04-18T21:34:41.408Z,10.82
2023-04-18T21:37:08.721Z,13.00
2023-04-18T21:39:38.094Z,10.43
2023-04-18T21:42:05.414Z,11.60
2023-04-18T21:44:32.836Z,13.70
2023-04-18T21:47:00.147Z,10.93
2023-04-18T21:49:27.468Z,9.90
2023-04-18T21:51:54.906Z,10.77
2023-04-18T21:54:22.187Z,9.90
2023-04-18T21:56:50.820Z,10.98
2023-04-18T21:59:18.079Z,11.45
2023-04-18T22:01:45.374Z,9.77
2023-04-18T22:04:14.541Z,9.32
2023-04-18T22:06:42.512Z,12.20
2023-04-18T22:09:09.801Z,11.88
2023-04-18T22:11:37.112Z,11.27
2023-04-18T22:14:05.965Z,10.18
2023-04-18T22:16:33.313Z,9.60
2023-04-18T22:19:01.144Z,12.10
2023-04-18T22:21:28.467Z,10.27
2023-04-18T22:23:55.790Z,12.82
2023-04-18T22:26:23.394Z,13.57
2023-04-18T22:28:50.691Z,10.90
2023-04-18T22:31:19.352Z,10.68
2023-04-18T22:33:47.475Z,11.68
2023-04-18T22:36:14.749Z,10.13
2023-04-18T22:38:42.025Z,10.68
2023-04-18T22:41:09.312Z,13.40
2023-04-18T22:43:36.657Z,10.60
2023-04-18T22:46:04.264Z,12.13
2023-04-18T22:48:34.932Z,11.40
2023-04-18T22:51:02.626Z,11.07
2023-04-18T22:53:29.910Z,10.23
2023-04-18T22:55:57.220Z,7.75
2023-04-18T22:58:24.565Z,9.38
2023-04-18T23:00:51.847Z,9.95
2023-04-18T23:03:19.235Z,8.48
2023-04-18T23:05:47.936Z,11.50
2023-04-18T23:08:15.307Z,8.80
2023-04-18T23:10:42.654Z,9.85
2023-04-18T23:13:09.966Z,8.93
2023-04-18T23:15:37.292Z,11.43
2023-04-18T23:18:04.754Z,8.98
2023-04-18T23:20:32.083Z,10.55
2023-04-18T23:23:00.753Z,10.23
2023-04-18T23:25:29.020Z,10.98
2023-04-18T23:27:56.359Z,10.13
2023-04-18T23:30:23.798Z,11.65
2023-04-18T23:32:51.137Z,12.20
2023-04-18T23:35:18.611Z,9.88
2023-04-18T23:37:45.987Z,10.02
2023-04-18T23:40:14.626Z,10.05
2023-04-18T23:42:42.084Z,9.27
2023-04-18T23:45:09.559Z,11.55
2023-04-18T23:47:36.894Z,9.75
2023-04-18T23:50:04.528Z,10.13
2023-04-18T23:52:31.877Z,10.98
2023-04-18T23:55:00.149Z,8.30
2023-04-18T23:57:28.853Z,10.20
2023-04-18T23:59:56.164Z,10.15
